sensor_id;sensor_type;location;lat;lon;timestamp;temperature;humidity
43185;DHT22;28803;52.308;19.096;2023-06-14T00:02:07;11.90;76.20
43185;DHT22;28803;52.308;19.096;2023-06-14T00:04:36;12.00;77.30
43185;DHT22;28803;52.308;19.096;2023-06-14T00:07:05;12.00;78.10
43185;DHT22;28803;52.308;19.096;2023-06-14T00:09:35;12.00;78.30
43185;DHT22;28803;52.308;19.096;2023-06-14T00:12:02;12.00;78.60
43185;DHT22;28803;52.308;19.096;2023-06-14T00:14:30;11.90;79.40
43185;DHT22;28803;52.308;19.096;2023-06-14T00:16:57;12.00;79.90
43185;DHT22;28803;52.308;19.096;2023-06-14T00:19:26;11.90;80.00
43185;DHT22;28803;52.308;19.096;2023-06-14T00:21:53;11.90;80.40
43185;DHT22;28803;52.308;19.096;2023-06-14T00:24:20;11.90;80.70
43185;DHT22;28803;52.308;19.096;2023-06-14T00:26:47;11.90;80.90
43185;DHT22;28803;52.308;19.096;2023-06-14T00:29:15;11.90;81.30
43185;DHT22;28803;52.308;19.096;2023-06-14T00:31:42;11.90;81.30
43185;DHT22;28803;52.308;19.096;2023-06-14T00:34:09;11.90;80.90
43185;DHT22;28803;52.308;19.096;2023-06-14T00:36:36;11.80;81.20
43185;DHT22;28803;52.308;19.096;2023-06-14T00:39:03;11.80;81.30
43185;DHT22;28803;52.308;19.096;2023-06-14T00:41:30;11.80;81.70
43185;DHT22;28803;52.308;19.096;2023-06-14T00:43:58;11.80;82.40
43185;DHT22;28803;52.308;19.096;2023-06-14T00:46:26;11.80;82.60
43185;DHT22;28803;52.308;19.096;2023-06-14T00:48:54;11.70;82.70
43185;DHT22;28803;52.308;19.096;2023-06-14T00:51:22;11.70;83.70
43185;DHT22;28803;52.308;19.096;2023-06-14T00:53:50;11.70;84.90
43185;DHT22;28803;52.308;19.096;2023-06-14T00:56:17;11.70;84.80
43185;DHT22;28803;52.308;19.096;2023-06-14T00:58:47;11.70;85.40
43185;DHT22;28803;52.308;19.096;2023-06-14T01:01:15;11.70;85.90
43185;DHT22;28803;52.308;19.096;2023-06-14T01:03:42;11.70;86.50
43185;DHT22;28803;52.308;19.096;2023-06-14T01:11:17;11.70;87.50
43185;DHT22;28803;52.308;19.096;2023-06-14T01:13:46;11.70;87.90
43185;DHT22;28803;52.308;19.096;2023-06-14T01:16:13;11.70;88.30
43185;DHT22;28803;52.308;19.096;2023-06-14T01:18:41;11.60;88.60
43185;DHT22;28803;52.308;19.096;2023-06-14T01:21:21;11.60;88.70
43185;DHT22;28803;52.308;19.096;2023-06-14T01:23:49;11.60;88.80
43185;DHT22;28803;52.308;19.096;2023-06-14T01:26:21;11.60;89.20
43185;DHT22;28803;52.308;19.096;2023-06-14T01:28:49;11.60;90.00
43185;DHT22;28803;52.308;19.096;2023-06-14T01:31:18;11.60;90.20
43185;DHT22;28803;52.308;19.096;2023-06-14T01:33:46;11.60;90.40
43185;DHT22;28803;52.308;19.096;2023-06-14T01:36:14;11.60;90.70
43185;DHT22;28803;52.308;19.096;2023-06-14T01:38:42;11.60;90.90
43185;DHT22;28803;52.308;19.096;2023-06-14T01:41:10;11.60;91.20
43185;DHT22;28803;52.308;19.096;2023-06-14T01:43:38;11.60;91.40
43185;DHT22;28803;52.308;19.096;2023-06-14T01:46:06;11.60;91.60
43185;DHT22;28803;52.308;19.096;2023-06-14T01:48:34;11.60;91.90
43185;DHT22;28803;52.308;19.096;2023-06-14T01:51:01;11.60;92.20
43185;DHT22;28803;52.308;19.096;2023-06-14T01:53:28;11.60;92.50
43185;DHT22;28803;52.308;19.096;2023-06-14T01:55:55;11.70;93.00
43185;DHT22;28803;52.308;19.096;2023-06-14T01:58:22;11.70;93.10
43185;DHT22;28803;52.308;19.096;2023-06-14T02:00:50;11.70;93.50
43185;DHT22;28803;52.308;19.096;2023-06-14T02:03:18;11.70;93.70
43185;DHT22;28803;52.308;19.096;2023-06-14T02:05:46;11.70;93.90
43185;DHT22;28803;52.308;19.096;2023-06-14T02:08:13;11.70;94.00
43185;DHT22;28803;52.308;19.096;2023-06-14T02:10:40;11.70;94.30
43185;DHT22;28803;52.308;19.096;2023-06-14T02:13:07;11.70;94.50
43185;DHT22;28803;52.308;19.096;2023-06-14T02:15:34;11.70;94.70
43185;DHT22;28803;52.308;19.096;2023-06-14T02:18:03;11.80;95.10
43185;DHT22;28803;52.308;19.096;2023-06-14T02:20:30;11.70;95.40
43185;DHT22;28803;52.308;19.096;2023-06-14T02:22:57;11.80;95.40
43185;DHT22;28803;52.308;19.096;2023-06-14T02:25:24;11.70;95.70
43185;DHT22;28803;52.308;19.096;2023-06-14T02:27:54;11.70;96.10
43185;DHT22;28803;52.308;19.096;2023-06-14T02:30:22;11.70;96.50
43185;DHT22;28803;52.308;19.096;2023-06-14T02:32:49;11.70;96.80
43185;DHT22;28803;52.308;19.096;2023-06-14T02:35:18;11.70;97.20
43185;DHT22;28803;52.308;19.096;2023-06-14T02:37:45;11.80;97.50
43185;DHT22;28803;52.308;19.096;2023-06-14T02:40:12;11.80;97.90
43185;DHT22;28803;52.308;19.096;2023-06-14T02:42:40;11.80;98.30
43185;DHT22;28803;52.308;19.096;2023-06-14T02:45:07;11.80;98.60
43185;DHT22;28803;52.308;19.096;2023-06-14T02:47:35;11.90;98.90
43185;DHT22;28803;52.308;19.096;2023-06-14T02:50:02;11.90;99.10
43185;DHT22;28803;52.308;19.096;2023-06-14T02:52:29;11.90;99.30
43185;DHT22;28803;52.308;19.096;2023-06-14T02:54:56;12.10;99.50
43185;DHT22;28803;52.308;19.096;2023-06-14T02:57:24;12.00;99.50
43185;DHT22;28803;52.308;19.096;2023-06-14T02:59:51;12.00;99.60
43185;DHT22;28803;52.308;19.096;2023-06-14T03:02:19;12.00;99.80
43185;DHT22;28803;52.308;19.096;2023-06-14T03:04:46;12.00;99.90
43185;DHT22;28803;52.308;19.096;2023-06-14T03:07:14;12.00;99.90
43185;DHT22;28803;52.308;19.096;2023-06-14T03:09:48;12.10;99.90
43185;DHT22;28803;52.308;19.096;2023-06-14T03:12:16;12.10;99.90
43185;DHT22;28803;52.308;19.096;2023-06-14T03:14:42;12.10;99.90
43185;DHT22;28803;52.308;19.096;2023-06-14T03:17:13;12.10;99.90
43185;DHT22;28803;52.308;19.096;2023-06-14T03:19:40;12.10;99.90
43185;DHT22;28803;52.308;19.096;2023-06-14T03:22:08;12.20;99.90
43185;DHT22;28803;52.308;19.096;2023-06-14T03:24:35;12.20;99.90
43185;DHT22;28803;52.308;19.096;2023-06-14T03:27:04;12.20;99.90
43185;DHT22;28803;52.308;19.096;2023-06-14T03:29:31;12.30;99.90
43185;DHT22;28803;52.308;19.096;2023-06-14T03:32:00;12.30;99.90
43185;DHT22;28803;52.308;19.096;2023-06-14T03:34:27;12.40;99.90
43185;DHT22;28803;52.308;19.096;2023-06-14T03:36:54;12.40;99.90
43185;DHT22;28803;52.308;19.096;2023-06-14T03:39:22;12.40;99.90
43185;DHT22;28803;52.308;19.096;2023-06-14T03:41:49;12.50;99.90
43185;DHT22;28803;52.308;19.096;2023-06-14T03:44:17;12.60;99.90
43185;DHT22;28803;52.308;19.096;2023-06-14T03:46:45;12.60;99.90
43185;DHT22;28803;52.308;19.096;2023-06-14T03:49:13;12.70;99.90
43185;DHT22;28803;52.308;19.096;2023-06-14T03:51:40;12.80;99.90
43185;DHT22;28803;52.308;19.096;2023-06-14T03:54:07;12.80;99.90
43185;DHT22;28803;52.308;19.096;2023-06-14T03:56:37;12.90;99.90
43185;DHT22;28803;52.308;19.096;2023-06-14T03:59:04;13.00;99.90
43185;DHT22;28803;52.308;19.096;2023-06-14T04:01:32;13.00;99.90
43185;DHT22;28803;52.308;19.096;2023-06-14T04:04:00;13.00;99.90
43185;DHT22;28803;52.308;19.096;2023-06-14T04:06:28;13.00;99.90
43185;DHT22;28803;52.308;19.096;2023-06-14T04:08:59;13.10;99.90
43185;DHT22;28803;52.308;19.096;2023-06-14T04:11:30;13.10;99.90
43185;DHT22;28803;52.308;19.096;2023-06-14T04:13:58;13.10;99.90
43185;DHT22;28803;52.308;19.096;2023-06-14T04:16:26;13.10;98.10
43185;DHT22;28803;52.308;19.096;2023-06-14T04:18:56;13.20;97.50
43185;DHT22;28803;52.308;19.096;2023-06-14T04:21:25;13.20;96.70
43185;DHT22;28803;52.308;19.096;2023-06-14T04:23:54;13.30;95.40
43185;DHT22;28803;52.308;19.096;2023-06-14T04:26:22;13.50;93.50
43185;DHT22;28803;52.308;19.096;2023-06-14T04:28:53;13.50;91.40
43185;DHT22;28803;52.308;19.096;2023-06-14T04:31:24;13.50;84.70
43185;DHT22;28803;52.308;19.096;2023-06-14T04:33:52;13.60;80.30
43185;DHT22;28803;52.308;19.096;2023-06-14T04:36:20;13.60;74.80
43185;DHT22;28803;52.308;19.096;2023-06-14T04:38:47;13.70;66.20
43185;DHT22;28803;52.308;19.096;2023-06-14T04:41:16;13.70;57.60
43185;DHT22;28803;52.308;19.096;2023-06-14T04:43:44;13.80;50.70
43185;DHT22;28803;52.308;19.096;2023-06-14T04:46:15;13.80;44.40
43185;DHT22;28803;52.308;19.096;2023-06-14T04:48:44;13.90;36.50
43185;DHT22;28803;52.308;19.096;2023-06-14T04:51:12;14.00;33.00
43185;DHT22;28803;52.308;19.096;2023-06-14T04:53:40;13.90;19.60
43185;DHT22;28803;52.308;19.096;2023-06-14T04:56:07;14.10;20.50
43185;DHT22;28803;52.308;19.096;2023-06-14T04:58:34;14.10;16.20
43185;DHT22;28803;52.308;19.096;2023-06-14T05:01:01;14.20;11.60
43185;DHT22;28803;52.308;19.096;2023-06-14T05:03:29;14.40;6.30
43185;DHT22;28803;52.308;19.096;2023-06-14T05:05:57;14.60;1.00
43185;DHT22;28803;52.308;19.096;2023-06-14T05:08:24;14.90;1.00
43185;DHT22;28803;52.308;19.096;2023-06-14T05:10:53;15.20;1.00
43185;DHT22;28803;52.308;19.096;2023-06-14T05:13:20;15.20;1.00
43185;DHT22;28803;52.308;19.096;2023-06-14T05:15:49;15.40;1.00
43185;DHT22;28803;52.308;19.096;2023-06-14T05:18:16;15.40;1.00
43185;DHT22;28803;52.308;19.096;2023-06-14T05:20:43;15.40;1.00
43185;DHT22;28803;52.308;19.096;2023-06-14T05:23:11;15.20;1.00
43185;DHT22;28803;52.308;19.096;2023-06-14T05:25:43;15.10;1.00
43185;DHT22;28803;52.308;19.096;2023-06-14T05:28:10;15.10;1.00
43185;DHT22;28803;52.308;19.096;2023-06-14T05:30:38;15.30;1.00
43185;DHT22;28803;52.308;19.096;2023-06-14T05:33:06;15.40;1.00
43185;DHT22;28803;52.308;19.096;2023-06-14T05:35:34;15.80;1.00
43185;DHT22;28803;52.308;19.096;2023-06-14T05:38:01;16.00;1.00
43185;DHT22;28803;52.308;19.096;2023-06-14T05:40:28;16.20;1.00
43185;DHT22;28803;52.308;19.096;2023-06-14T05:42:55;16.40;99.90
43185;DHT22;28803;52.308;19.096;2023-06-14T05:45:23;16.60;99.90
43185;DHT22;28803;52.308;19.096;2023-06-14T05:47:50;16.80;99.90
43185;DHT22;28803;52.308;19.096;2023-06-14T05:50:17;16.80;99.90
43185;DHT22;28803;52.308;19.096;2023-06-14T05:52:45;16.80;99.90
43185;DHT22;28803;52.308;19.096;2023-06-14T05:55:12;16.90;99.90
43185;DHT22;28803;52.308;19.096;2023-06-14T05:57:40;16.80;25.10
43185;DHT22;28803;52.308;19.096;2023-06-14T06:00:09;16.90;99.90
43185;DHT22;28803;52.308;19.096;2023-06-14T06:02:42;17.20;99.90
43185;DHT22;28803;52.308;19.096;2023-06-14T06:05:11;17.60;1.00
43185;DHT22;28803;52.308;19.096;2023-06-14T06:07:39;18.00;99.90
43185;DHT22;28803;52.308;19.096;2023-06-14T06:10:11;18.50;99.90
43185;DHT22;28803;52.308;19.096;2023-06-14T06:12:38;18.90;1.00
43185;DHT22;28803;52.308;19.096;2023-06-14T06:15:05;18.70;99.90
43185;DHT22;28803;52.308;19.096;2023-06-14T06:17:33;18.60;42.30
43185;DHT22;28803;52.308;19.096;2023-06-14T06:20:20;18.30;99.90
43185;DHT22;28803;52.308;19.096;2023-06-14T06:22:48;18.20;99.90
43185;DHT22;28803;52.308;19.096;2023-06-14T06:25:15;18.30;1.00
43185;DHT22;28803;52.308;19.096;2023-06-14T06:27:44;18.40;1.00
43185;DHT22;28803;52.308;19.096;2023-06-14T06:30:12;18.50;1.00
43185;DHT22;28803;52.308;19.096;2023-06-14T06:32:39;18.90;3.50
43185;DHT22;28803;52.308;19.096;2023-06-14T06:35:06;19.30;1.00
43185;DHT22;28803;52.308;19.096;2023-06-14T06:37:35;19.70;64.80
43185;DHT22;28803;52.308;19.096;2023-06-14T06:40:03;19.90;1.00
43185;DHT22;28803;52.308;19.096;2023-06-14T06:42:32;19.70;1.00
43185;DHT22;28803;52.308;19.096;2023-06-14T06:45:00;19.50;1.00
43185;DHT22;28803;52.308;19.096;2023-06-14T06:47:27;19.10;99.90
43185;DHT22;28803;52.308;19.096;2023-06-14T06:49:54;18.50;44.30
43185;DHT22;28803;52.308;19.096;2023-06-14T06:52:21;18.10;1.00
43185;DHT22;28803;52.308;19.096;2023-06-14T06:54:49;17.90;1.00
43185;DHT22;28803;52.308;19.096;2023-06-14T06:57:17;17.80;99.90
43185;DHT22;28803;52.308;19.096;2023-06-14T06:59:44;17.60;99.90
43185;DHT22;28803;52.308;19.096;2023-06-14T07:02:11;17.90;99.90
43185;DHT22;28803;52.308;19.096;2023-06-14T07:04:39;18.20;1.00
43185;DHT22;28803;52.308;19.096;2023-06-14T07:07:06;18.30;99.90
43185;DHT22;28803;52.308;19.096;2023-06-14T07:09:33;18.50;1.00
43185;DHT22;28803;52.308;19.096;2023-06-14T07:12:14;18.70;99.90
43185;DHT22;28803;52.308;19.096;2023-06-14T07:14:41;18.40;86.20
43185;DHT22;28803;52.308;19.096;2023-06-14T07:17:08;18.40;1.00
43185;DHT22;28803;52.308;19.096;2023-06-14T07:19:35;18.90;1.00
43185;DHT22;28803;52.308;19.096;2023-06-14T07:22:02;20.50;1.00
43185;DHT22;28803;52.308;19.096;2023-06-14T07:24:30;21.40;1.00
43185;DHT22;28803;52.308;19.096;2023-06-14T07:26:57;21.30;99.90
43185;DHT22;28803;52.308;19.096;2023-06-14T07:29:25;21.50;99.90
43185;DHT22;28803;52.308;19.096;2023-06-14T07:31:53;22.20;99.90
43185;DHT22;28803;52.308;19.096;2023-06-14T07:34:20;23.30;83.70
43185;DHT22;28803;52.308;19.096;2023-06-14T07:36:48;24.70;1.00
43185;DHT22;28803;52.308;19.096;2023-06-14T07:39:15;25.90;99.90
43185;DHT22;28803;52.308;19.096;2023-06-14T07:41:42;26.30;99.90
43185;DHT22;28803;52.308;19.096;2023-06-14T07:44:09;26.20;99.90
43185;DHT22;28803;52.308;19.096;2023-06-14T07:46:37;26.70;99.90
43185;DHT22;28803;52.308;19.096;2023-06-14T07:49:05;26.10;99.90
43185;DHT22;28803;52.308;19.096;2023-06-14T07:51:32;25.70;99.90
43185;DHT22;28803;52.308;19.096;2023-06-14T07:54:00;25.30;99.90
43185;DHT22;28803;52.308;19.096;2023-06-14T07:56:28;25.30;99.90
43185;DHT22;28803;52.308;19.096;2023-06-14T07:58:56;25.70;99.90
43185;DHT22;28803;52.308;19.096;2023-06-14T08:01:23;25.80;99.90
43185;DHT22;28803;52.308;19.096;2023-06-14T08:03:52;25.30;99.90
43185;DHT22;28803;52.308;19.096;2023-06-14T08:06:19;24.60;99.90
43185;DHT22;28803;52.308;19.096;2023-06-14T08:08:47;24.40;99.90
43185;DHT22;28803;52.308;19.096;2023-06-14T08:11:14;24.30;99.90
43185;DHT22;28803;52.308;19.096;2023-06-14T08:13:41;23.80;99.90
43185;DHT22;28803;52.308;19.096;2023-06-14T08:16:08;23.20;99.90
43185;DHT22;28803;52.308;19.096;2023-06-14T08:18:36;22.10;99.90
43185;DHT22;28803;52.308;19.096;2023-06-14T08:21:03;21.60;99.90
43185;DHT22;28803;52.308;19.096;2023-06-14T08:23:31;20.80;1.00
43185;DHT22;28803;52.308;19.096;2023-06-14T08:25:58;19.80;1.00
43185;DHT22;28803;52.308;19.096;2023-06-14T08:28:28;19.50;1.00
43185;DHT22;28803;52.308;19.096;2023-06-14T08:30:55;19.30;99.90
43185;DHT22;28803;52.308;19.096;2023-06-14T08:33:32;19.30;99.90
43185;DHT22;28803;52.308;19.096;2023-06-14T08:36:02;19.40;1.00
43185;DHT22;28803;52.308;19.096;2023-06-14T08:38:30;19.30;1.00
43185;DHT22;28803;52.308;19.096;2023-06-14T08:41:00;19.10;1.00
43185;DHT22;28803;52.308;19.096;2023-06-14T08:43:28;19.10;96.30
43185;DHT22;28803;52.308;19.096;2023-06-14T08:45:58;19.70;89.60
43185;DHT22;28803;52.308;19.096;2023-06-14T08:48:26;20.20;99.90
43185;DHT22;28803;52.308;19.096;2023-06-14T08:50:56;20.50;99.90
43185;DHT22;28803;52.308;19.096;2023-06-14T08:53:30;20.70;99.90
43185;DHT22;28803;52.308;19.096;2023-06-14T08:56:02;20.20;99.90
43185;DHT22;28803;52.308;19.096;2023-06-14T08:58:31;19.60;99.90
43185;DHT22;28803;52.308;19.096;2023-06-14T09:01:01;20.50;99.90
43185;DHT22;28803;52.308;19.096;2023-06-14T09:03:28;20.90;60.40
43185;DHT22;28803;52.308;19.096;2023-06-14T09:05:58;20.60;1.00
43185;DHT22;28803;52.308;19.096;2023-06-14T09:08:29;20.50;1.00
43185;DHT22;28803;52.308;19.096;2023-06-14T09:11:00;20.90;1.00
43185;DHT22;28803;52.308;19.096;2023-06-14T09:13:28;21.10;51.40
43185;DHT22;28803;52.308;19.096;2023-06-14T09:15:57;20.60;1.00
43185;DHT22;28803;52.308;19.096;2023-06-14T09:18:38;20.80;1.00
43185;DHT22;28803;52.308;19.096;2023-06-14T09:21:06;21.80;1.00
43185;DHT22;28803;52.308;19.096;2023-06-14T09:23:37;22.40;99.90
43185;DHT22;28803;52.308;19.096;2023-06-14T09:26:14;21.90;99.90
43185;DHT22;28803;52.308;19.096;2023-06-14T09:28:43;21.70;99.90
43185;DHT22;28803;52.308;19.096;2023-06-14T09:31:15;22.00;1.00
43185;DHT22;28803;52.308;19.096;2023-06-14T09:33:43;22.10;99.90
43185;DHT22;28803;52.308;19.096;2023-06-14T09:36:18;22.10;99.90
43185;DHT22;28803;52.308;19.096;2023-06-14T09:38:51;22.60;99.90
43185;DHT22;28803;52.308;19.096;2023-06-14T09:41:19;23.40;99.90
43185;DHT22;28803;52.308;19.096;2023-06-14T09:43:47;23.80;99.90
43185;DHT22;28803;52.308;19.096;2023-06-14T09:46:13;22.80;99.90
43185;DHT22;28803;52.308;19.096;2023-06-14T09:48:41;22.20;99.90
43185;DHT22;28803;52.308;19.096;2023-06-14T09:51:10;21.70;1.00
43185;DHT22;28803;52.308;19.096;2023-06-14T09:53:37;21.30;1.00
43185;DHT22;28803;52.308;19.096;2023-06-14T09:56:06;21.00;1.00
43185;DHT22;28803;52.308;19.096;2023-06-14T09:58:34;20.60;1.00
43185;DHT22;28803;52.308;19.096;2023-06-14T10:01:02;20.60;1.00
43185;DHT22;28803;52.308;19.096;2023-06-14T10:03:30;20.80;1.00
43185;DHT22;28803;52.308;19.096;2023-06-14T10:06:47;21.10;1.00
43185;DHT22;28803;52.308;19.096;2023-06-14T10:09:15;21.30;1.00
43185;DHT22;28803;52.308;19.096;2023-06-14T10:11:42;20.90;99.90
43185;DHT22;28803;52.308;19.096;2023-06-14T10:14:12;20.80;1.00
43185;DHT22;28803;52.308;19.096;2023-06-14T10:21:54;21.20;1.00
43185;DHT22;28803;52.308;19.096;2023-06-14T10:24:26;21.30;1.00
43185;DHT22;28803;52.308;19.096;2023-06-14T10:26:56;21.40;99.90
43185;DHT22;28803;52.308;19.096;2023-06-14T10:29:27;21.70;99.90
43185;DHT22;28803;52.308;19.096;2023-06-14T10:31:59;21.80;99.90
43185;DHT22;28803;52.308;19.096;2023-06-14T10:34:28;22.20;99.90
43185;DHT22;28803;52.308;19.096;2023-06-14T10:37:05;22.20;99.90
43185;DHT22;28803;52.308;19.096;2023-06-14T10:39:43;21.90;99.90
43185;DHT22;28803;52.308;19.096;2023-06-14T10:42:13;22.00;99.90
43185;DHT22;28803;52.308;19.096;2023-06-14T10:44:50;21.70;99.90
43185;DHT22;28803;52.308;19.096;2023-06-14T10:47:26;21.60;99.90
43185;DHT22;28803;52.308;19.096;2023-06-14T10:50:06;21.50;99.90
43185;DHT22;28803;52.308;19.096;2023-06-14T10:52:36;21.50;99.90
43185;DHT22;28803;52.308;19.096;2023-06-14T10:57:33;21.70;99.90
43185;DHT22;28803;52.308;19.096;2023-06-14T11:00:17;21.50;99.90
43185;DHT22;28803;52.308;19.096;2023-06-14T11:05:30;21.90;99.90
43185;DHT22;28803;52.308;19.096;2023-06-14T11:10:39;22.10;99.90
43185;DHT22;28803;52.308;19.096;2023-06-14T11:13:07;22.40;99.90
43185;DHT22;28803;52.308;19.096;2023-06-14T11:15:35;22.30;99.90
43185;DHT22;28803;52.308;19.096;2023-06-14T11:18:04;22.10;99.90
43185;DHT22;28803;52.308;19.096;2023-06-14T11:20:32;21.90;99.90
43185;DHT22;28803;52.308;19.096;2023-06-14T11:23:00;21.70;99.90
43185;DHT22;28803;52.308;19.096;2023-06-14T11:25:27;21.50;99.90
43185;DHT22;28803;52.308;19.096;2023-06-14T11:27:57;21.40;99.90
43185;DHT22;28803;52.308;19.096;2023-06-14T11:30:25;20.90;99.90
43185;DHT22;28803;52.308;19.096;2023-06-14T11:32:54;20.60;99.90
43185;DHT22;28803;52.308;19.096;2023-06-14T11:35:25;20.70;99.90
43185;DHT22;28803;52.308;19.096;2023-06-14T11:37:53;20.90;99.90
43185;DHT22;28803;52.308;19.096;2023-06-14T11:40:25;20.80;99.90
43185;DHT22;28803;52.308;19.096;2023-06-14T11:42:59;21.10;99.90
43185;DHT22;28803;52.308;19.096;2023-06-14T11:45:28;22.80;99.90
43185;DHT22;28803;52.308;19.096;2023-06-14T11:47:56;23.80;99.90
43185;DHT22;28803;52.308;19.096;2023-06-14T11:50:24;24.90;99.90
43185;DHT22;28803;52.308;19.096;2023-06-14T11:52:53;25.80;99.90
43185;DHT22;28803;52.308;19.096;2023-06-14T11:55:20;27.20;99.90
43185;DHT22;28803;52.308;19.096;2023-06-14T11:57:47;28.70;99.90
43185;DHT22;28803;52.308;19.096;2023-06-14T12:00:15;29.40;88.10
43185;DHT22;28803;52.308;19.096;2023-06-14T12:02:42;30.90;29.80
43185;DHT22;28803;52.308;19.096;2023-06-14T12:05:10;31.40;1.00
43185;DHT22;28803;52.308;19.096;2023-06-14T12:07:37;31.00;1.00
43185;DHT22;28803;52.308;19.096;2023-06-14T12:10:11;31.00;1.00
43185;DHT22;28803;52.308;19.096;2023-06-14T12:12:39;29.20;1.00
43185;DHT22;28803;52.308;19.096;2023-06-14T12:15:07;27.90;1.00
43185;DHT22;28803;52.308;19.096;2023-06-14T12:17:35;26.50;1.00
43185;DHT22;28803;52.308;19.096;2023-06-14T12:20:08;25.40;1.00
43185;DHT22;28803;52.308;19.096;2023-06-14T12:22:52;25.00;1.00
43185;DHT22;28803;52.308;19.096;2023-06-14T12:25:33;26.20;1.00
43185;DHT22;28803;52.308;19.096;2023-06-14T12:28:04;27.20;1.00
43185;DHT22;28803;52.308;19.096;2023-06-14T12:30:38;28.40;1.00
43185;DHT22;28803;52.308;19.096;2023-06-14T12:33:05;27.40;1.00
43185;DHT22;28803;52.308;19.096;2023-06-14T12:35:33;26.60;1.00
43185;DHT22;28803;52.308;19.096;2023-06-14T12:38:00;26.60;1.00
43185;DHT22;28803;52.308;19.096;2023-06-14T12:40:27;26.90;1.00
43185;DHT22;28803;52.308;19.096;2023-06-14T12:42:56;26.30;1.00
43185;DHT22;28803;52.308;19.096;2023-06-14T12:45:23;25.70;1.00
43185;DHT22;28803;52.308;19.096;2023-06-14T12:47:50;24.80;1.00
43185;DHT22;28803;52.308;19.096;2023-06-14T12:50:19;24.00;1.00
43185;DHT22;28803;52.308;19.096;2023-06-14T12:52:49;23.80;1.00
43185;DHT22;28803;52.308;19.096;2023-06-14T12:55:17;23.40;1.00
43185;DHT22;28803;52.308;19.096;2023-06-14T12:57:45;23.20;1.00
43185;DHT22;28803;52.308;19.096;2023-06-14T13:00:12;23.80;1.00
43185;DHT22;28803;52.308;19.096;2023-06-14T13:02:41;24.10;1.00
43185;DHT22;28803;52.308;19.096;2023-06-14T13:05:11;23.60;1.00
43185;DHT22;28803;52.308;19.096;2023-06-14T13:07:38;23.60;1.00
43185;DHT22;28803;52.308;19.096;2023-06-14T13:10:05;23.50;1.00
43185;DHT22;28803;52.308;19.096;2023-06-14T13:12:32;23.40;1.00
43185;DHT22;28803;52.308;19.096;2023-06-14T13:14:59;23.80;1.00
43185;DHT22;28803;52.308;19.096;2023-06-14T13:17:26;24.70;1.00
43185;DHT22;28803;52.308;19.096;2023-06-14T13:19:54;25.40;1.00
43185;DHT22;28803;52.308;19.096;2023-06-14T13:22:21;26.50;1.00
43185;DHT22;28803;52.308;19.096;2023-06-14T13:24:49;26.30;1.00
43185;DHT22;28803;52.308;19.096;2023-06-14T13:27:16;25.60;1.00
43185;DHT22;28803;52.308;19.096;2023-06-14T13:29:43;25.20;1.00
43185;DHT22;28803;52.308;19.096;2023-06-14T13:32:10;25.90;1.00
43185;DHT22;28803;52.308;19.096;2023-06-14T13:34:37;26.30;1.00
43185;DHT22;28803;52.308;19.096;2023-06-14T13:37:05;25.40;1.00
43185;DHT22;28803;52.308;19.096;2023-06-14T13:39:32;24.70;1.00
43185;DHT22;28803;52.308;19.096;2023-06-14T13:41:59;24.10;1.00
43185;DHT22;28803;52.308;19.096;2023-06-14T13:44:27;24.00;1.00
43185;DHT22;28803;52.308;19.096;2023-06-14T13:46:54;23.40;1.00
43185;DHT22;28803;52.308;19.096;2023-06-14T13:49:22;23.40;1.00
43185;DHT22;28803;52.308;19.096;2023-06-14T13:51:49;23.50;1.00
43185;DHT22;28803;52.308;19.096;2023-06-14T13:54:17;23.60;1.00
43185;DHT22;28803;52.308;19.096;2023-06-14T13:56:46;24.00;1.00
43185;DHT22;28803;52.308;19.096;2023-06-14T13:59:13;23.80;1.00
43185;DHT22;28803;52.308;19.096;2023-06-14T14:01:40;24.10;1.00
43185;DHT22;28803;52.308;19.096;2023-06-14T14:04:07;24.30;1.00
43185;DHT22;28803;52.308;19.096;2023-06-14T14:06:35;24.40;1.00
43185;DHT22;28803;52.308;19.096;2023-06-14T14:09:02;23.50;1.00
43185;DHT22;28803;52.308;19.096;2023-06-14T14:11:30;22.50;1.00
43185;DHT22;28803;52.308;19.096;2023-06-14T14:13:59;21.70;1.00
43185;DHT22;28803;52.308;19.096;2023-06-14T14:16:26;21.90;1.00
43185;DHT22;28803;52.308;19.096;2023-06-14T14:18:53;22.00;1.00
43185;DHT22;28803;52.308;19.096;2023-06-14T14:21:21;22.50;1.00
43185;DHT22;28803;52.308;19.096;2023-06-14T14:23:48;23.60;1.00
43185;DHT22;28803;52.308;19.096;2023-06-14T14:26:16;24.50;1.00
43185;DHT22;28803;52.308;19.096;2023-06-14T14:28:43;24.70;1.00
43185;DHT22;28803;52.308;19.096;2023-06-14T14:31:11;24.80;1.00
43185;DHT22;28803;52.308;19.096;2023-06-14T14:33:38;25.60;1.00
43185;DHT22;28803;52.308;19.096;2023-06-14T14:36:05;26.30;1.00
43185;DHT22;28803;52.308;19.096;2023-06-14T14:38:33;26.50;1.00
43185;DHT22;28803;52.308;19.096;2023-06-14T14:41:00;27.00;1.00
43185;DHT22;28803;52.308;19.096;2023-06-14T14:43:28;26.10;1.00
43185;DHT22;28803;52.308;19.096;2023-06-14T14:45:57;25.60;1.00
43185;DHT22;28803;52.308;19.096;2023-06-14T14:48:25;26.10;1.00
43185;DHT22;28803;52.308;19.096;2023-06-14T14:50:52;25.30;1.00
43185;DHT22;28803;52.308;19.096;2023-06-14T14:53:19;24.20;1.00
43185;DHT22;28803;52.308;19.096;2023-06-14T14:55:46;23.30;1.00
43185;DHT22;28803;52.308;19.096;2023-06-14T14:58:13;22.60;1.00
43185;DHT22;28803;52.308;19.096;2023-06-14T15:00:45;22.10;1.00
43185;DHT22;28803;52.308;19.096;2023-06-14T15:03:12;21.60;1.00
43185;DHT22;28803;52.308;19.096;2023-06-14T15:05:40;21.40;1.00
43185;DHT22;28803;52.308;19.096;2023-06-14T15:08:07;21.10;1.00
43185;DHT22;28803;52.308;19.096;2023-06-14T15:10:38;21.20;1.00
43185;DHT22;28803;52.308;19.096;2023-06-14T15:13:10;21.10;1.00
43185;DHT22;28803;52.308;19.096;2023-06-14T15:15:38;21.00;1.00
43185;DHT22;28803;52.308;19.096;2023-06-14T15:18:06;20.90;1.00
43185;DHT22;28803;52.308;19.096;2023-06-14T15:20:33;20.60;1.00
43185;DHT22;28803;52.308;19.096;2023-06-14T15:23:00;20.60;1.00
43185;DHT22;28803;52.308;19.096;2023-06-14T15:25:28;20.50;1.00
43185;DHT22;28803;52.308;19.096;2023-06-14T15:27:56;20.40;1.00
43185;DHT22;28803;52.308;19.096;2023-06-14T15:30:23;20.30;1.00
43185;DHT22;28803;52.308;19.096;2023-06-14T15:32:51;20.00;1.00
43185;DHT22;28803;52.308;19.096;2023-06-14T15:35:18;19.80;1.00
43185;DHT22;28803;52.308;19.096;2023-06-14T15:37:47;19.60;1.00
43185;DHT22;28803;52.308;19.096;2023-06-14T15:40:15;19.40;1.00
43185;DHT22;28803;52.308;19.096;2023-06-14T15:42:42;19.40;1.00
43185;DHT22;28803;52.308;19.096;2023-06-14T15:45:09;19.30;1.00
43185;DHT22;28803;52.308;19.096;2023-06-14T15:47:36;19.40;1.00
43185;DHT22;28803;52.308;19.096;2023-06-14T15:50:05;19.40;10.60